sensor_id;sensor_type;location;lat;lon;timestamp;P1;durP1;ratioP1;P2;durP2;ratioP2
63312;SDS011;49442;45.640;13.812;2024-03-08T00:00:40;8.27;;;6.50;;
63312;SDS011;49442;45.640;13.812;2024-03-08T00:03:08;9.23;;;6.72;;
63312;SDS011;49442;45.640;13.812;2024-03-08T00:05:35;10.80;;;6.55;;
63312;SDS011;49442;45.640;13.812;2024-03-08T00:08:01;8.80;;;6.85;;
63312;SDS011;49442;45.640;13.812;2024-03-08T00:10:27;7.30;;;6.25;;
63312;SDS011;49442;45.640;13.812;2024-03-08T00:12:54;10.43;;;7.25;;
63312;SDS011;49442;45.640;13.812;2024-03-08T00:15:19;8.50;;;6.75;;
63312;SDS011;49442;45.640;13.812;2024-03-08T00:17:48;9.88;;;7.05;;
63312;SDS011;49442;45.640;13.812;2024-03-08T00:20:13;10.27;;;7.13;;
63312;SDS011;49442;45.640;13.812;2024-03-08T00:22:39;10.10;;;7.10;;
63312;SDS011;49442;45.640;13.812;2024-03-08T00:25:06;11.32;;;6.93;;
63312;SDS011;49442;45.640;13.812;2024-03-08T00:27:35;10.07;;;6.95;;
63312;SDS011;49442;45.640;13.812;2024-03-08T00:30:02;9.35;;;6.35;;
63312;SDS011;49442;45.640;13.812;2024-03-08T00:32:28;8.43;;;6.22;;
63312;SDS011;49442;45.640;13.812;2024-03-08T00:34:54;9.45;;;6.22;;
63312;SDS011;49442;45.640;13.812;2024-03-08T00:37:20;10.13;;;6.65;;
63312;SDS011;49442;45.640;13.812;2024-03-08T00:39:50;9.18;;;5.88;;
63312;SDS011;49442;45.640;13.812;2024-03-08T00:42:16;9.77;;;6.28;;
63312;SDS011;49442;45.640;13.812;2024-03-08T00:44:42;9.52;;;6.32;;
63312;SDS011;49442;45.640;13.812;2024-03-08T00:47:08;8.15;;;6.70;;
63312;SDS011;49442;45.640;13.812;2024-03-08T00:49:34;9.80;;;6.35;;
63312;SDS011;49442;45.640;13.812;2024-03-08T00:52:03;9.18;;;6.80;;
63312;SDS011;49442;45.640;13.812;2024-03-08T00:54:31;11.52;;;7.07;;
63312;SDS011;49442;45.640;13.812;2024-03-08T00:56:57;11.43;;;7.05;;
63312;SDS011;49442;45.640;13.812;2024-03-08T00:59:23;8.60;;;6.13;;
63312;SDS011;49442;45.640;13.812;2024-03-08T01:01:48;9.23;;;6.65;;
63312;SDS011;49442;45.640;13.812;2024-03-08T01:04:14;7.13;;;5.72;;
63312;SDS011;49442;45.640;13.812;2024-03-08T01:06:40;8.57;;;6.38;;
63312;SDS011;49442;45.640;13.812;2024-03-08T01:09:05;11.25;;;6.97;;
63312;SDS011;49442;45.640;13.812;2024-03-08T01:11:34;8.45;;;6.35;;
63312;SDS011;49442;45.640;13.812;2024-03-08T01:14:00;12.45;;;6.95;;
63312;SDS011;49442;45.640;13.812;2024-03-08T01:16:26;11.65;;;6.80;;
63312;SDS011;49442;45.640;13.812;2024-03-08T01:18:52;9.10;;;6.05;;
63312;SDS011;49442;45.640;13.812;2024-03-08T01:21:17;8.65;;;6.30;;
63312;SDS011;49442;45.640;13.812;2024-03-08T01:23:43;8.38;;;5.97;;
63312;SDS011;49442;45.640;13.812;2024-03-08T01:26:08;8.40;;;5.75;;
63312;SDS011;49442;45.640;13.812;2024-03-08T01:28:34;7.55;;;6.28;;
63312;SDS011;49442;45.640;13.812;2024-03-08T01:31:00;8.38;;;6.80;;
63312;SDS011;49442;45.640;13.812;2024-03-08T01:33:26;11.20;;;5.93;;
63312;SDS011;49442;45.640;13.812;2024-03-08T01:35:52;7.40;;;5.82;;
63312;SDS011;49442;45.640;13.812;2024-03-08T01:38:19;8.25;;;5.93;;
63312;SDS011;49442;45.640;13.812;2024-03-08T01:40:48;7.20;;;5.68;;
63312;SDS011;49442;45.640;13.812;2024-03-08T01:43:21;8.07;;;5.65;;
63312;SDS011;49442;45.640;13.812;2024-03-08T01:45:50;8.50;;;6.13;;
63312;SDS011;49442;45.640;13.812;2024-03-08T01:48:17;9.27;;;6.20;;
63312;SDS011;49442;45.640;13.812;2024-03-08T01:50:44;9.18;;;6.10;;
63312;SDS011;49442;45.640;13.812;2024-03-08T01:53:10;7.78;;;5.38;;
63312;SDS011;49442;45.640;13.812;2024-03-08T01:55:37;13.35;;;6.10;;
63312;SDS011;49442;45.640;13.812;2024-03-08T01:58:04;7.40;;;5.65;;
63312;SDS011;49442;45.640;13.812;2024-03-08T02:00:30;7.50;;;5.88;;
63312;SDS011;49442;45.640;13.812;2024-03-08T02:02:58;7.07;;;5.82;;
63312;SDS011;49442;45.640;13.812;2024-03-08T02:05:23;7.47;;;5.93;;
63312;SDS011;49442;45.640;13.812;2024-03-08T02:07:50;8.88;;;5.05;;
63312;SDS011;49442;45.640;13.812;2024-03-08T02:10:16;9.25;;;5.60;;
63312;SDS011;49442;45.640;13.812;2024-03-08T02:12:42;8.65;;;5.00;;
63312;SDS011;49442;45.640;13.812;2024-03-08T02:15:08;8.32;;;5.88;;
63312;SDS011;49442;45.640;13.812;2024-03-08T02:17:35;8.75;;;6.00;;
63312;SDS011;49442;45.640;13.812;2024-03-08T02:20:01;8.23;;;5.97;;
63312;SDS011;49442;45.640;13.812;2024-03-08T02:22:28;7.35;;;5.80;;
63312;SDS011;49442;45.640;13.812;2024-03-08T02:24:57;8.27;;;6.22;;
63312;SDS011;49442;45.640;13.812;2024-03-08T02:27:26;13.35;;;5.60;;
63312;SDS011;49442;45.640;13.812;2024-03-08T02:29:56;7.07;;;5.20;;
63312;SDS011;49442;45.640;13.812;2024-03-08T02:32:25;9.43;;;6.25;;
63312;SDS011;49442;45.640;13.812;2024-03-08T02:34:51;7.93;;;6.10;;
63312;SDS011;49442;45.640;13.812;2024-03-08T02:37:20;8.07;;;5.95;;
63312;SDS011;49442;45.640;13.812;2024-03-08T02:39:46;7.70;;;5.15;;
63312;SDS011;49442;45.640;13.812;2024-03-08T02:42:12;10.38;;;5.90;;
63312;SDS011;49442;45.640;13.812;2024-03-08T02:44:41;7.70;;;5.50;;
63312;SDS011;49442;45.640;13.812;2024-03-08T02:47:09;8.73;;;5.68;;
63312;SDS011;49442;45.640;13.812;2024-03-08T02:49:35;8.55;;;5.85;;
63312;SDS011;49442;45.640;13.812;2024-03-08T02:52:03;7.18;;;5.65;;
63312;SDS011;49442;45.640;13.812;2024-03-08T02:54:30;8.80;;;5.93;;
63312;SDS011;49442;45.640;13.812;2024-03-08T02:56:55;7.20;;;5.32;;
63312;SDS011;49442;45.640;13.812;2024-03-08T02:59:21;7.53;;;5.55;;
63312;SDS011;49442;45.640;13.812;2024-03-08T03:01:48;7.60;;;5.53;;
63312;SDS011;49442;45.640;13.812;2024-03-08T03:04:14;7.47;;;5.82;;
63312;SDS011;49442;45.640;13.812;2024-03-08T03:06:40;7.18;;;5.63;;
63312;SDS011;49442;45.640;13.812;2024-03-08T03:09:06;7.35;;;5.60;;
63312;SDS011;49442;45.640;13.812;2024-03-08T03:11:32;7.53;;;5.50;;
63312;SDS011;49442;45.640;13.812;2024-03-08T03:13:57;9.70;;;5.68;;
63312;SDS011;49442;45.640;13.812;2024-03-08T03:16:23;11.13;;;7.18;;
63312;SDS011;49442;45.640;13.812;2024-03-08T03:18:49;9.52;;;6.82;;
63312;SDS011;49442;45.640;13.812;2024-03-08T03:21:15;7.40;;;5.45;;
63312;SDS011;49442;45.640;13.812;2024-03-08T03:23:42;7.28;;;5.80;;
63312;SDS011;49442;45.640;13.812;2024-03-08T03:26:10;9.70;;;5.90;;
63312;SDS011;49442;45.640;13.812;2024-03-08T03:28:37;12.45;;;6.80;;
63312;SDS011;49442;45.640;13.812;2024-03-08T03:31:06;9.95;;;6.75;;
63312;SDS011;49442;45.640;13.812;2024-03-08T03:33:31;7.88;;;6.35;;
63312;SDS011;49442;45.640;13.812;2024-03-08T03:35:59;9.57;;;6.55;;
63312;SDS011;49442;45.640;13.812;2024-03-08T03:38:26;11.13;;;6.47;;
63312;SDS011;49442;45.640;13.812;2024-03-08T03:40:53;8.60;;;6.07;;
63312;SDS011;49442;45.640;13.812;2024-03-08T03:43:22;9.02;;;7.25;;
63312;SDS011;49442;45.640;13.812;2024-03-08T03:45:48;9.85;;;7.28;;
63312;SDS011;49442;45.640;13.812;2024-03-08T03:48:14;9.45;;;6.78;;
63312;SDS011;49442;45.640;13.812;2024-03-08T03:50:39;9.57;;;6.70;;
63312;SDS011;49442;45.640;13.812;2024-03-08T03:53:05;11.13;;;6.53;;
63312;SDS011;49442;45.640;13.812;2024-03-08T03:55:34;9.77;;;7.18;;
63312;SDS011;49442;45.640;13.812;2024-03-08T03:58:01;10.35;;;6.85;;
63312;SDS011;49442;45.640;13.812;2024-03-08T04:00:27;9.00;;;6.72;;
63312;SDS011;49442;45.640;13.812;2024-03-08T04:02:53;11.38;;;7.03;;
63312;SDS011;49442;45.640;13.812;2024-03-08T04:05:20;9.27;;;7.50;;
63312;SDS011;49442;45.640;13.812;2024-03-08T04:07:46;11.65;;;7.35;;
63312;SDS011;49442;45.640;13.812;2024-03-08T04:10:11;10.73;;;8.43;;
63312;SDS011;49442;45.640;13.812;2024-03-08T04:12:37;9.75;;;7.90;;
63312;SDS011;49442;45.640;13.812;2024-03-08T04:15:03;15.20;;;8.25;;
63312;SDS011;49442;45.640;13.812;2024-03-08T04:17:32;12.52;;;8.82;;
63312;SDS011;49442;45.640;13.812;2024-03-08T04:20:02;15.23;;;7.38;;
63312;SDS011;49442;45.640;13.812;2024-03-08T04:22:34;10.45;;;7.78;;
63312;SDS011;49442;45.640;13.812;2024-03-08T04:25:01;12.52;;;8.90;;
63312;SDS011;49442;45.640;13.812;2024-03-08T04:27:27;12.35;;;8.68;;
63312;SDS011;49442;45.640;13.812;2024-03-08T04:29:53;12.75;;;8.23;;
63312;SDS011;49442;45.640;13.812;2024-03-08T04:32:18;12.25;;;9.07;;
63312;SDS011;49442;45.640;13.812;2024-03-08T04:34:44;14.18;;;9.50;;
63312;SDS011;49442;45.640;13.812;2024-03-08T04:37:10;16.00;;;9.73;;
63312;SDS011;49442;45.640;13.812;2024-03-08T04:39:38;15.23;;;9.73;;
63312;SDS011;49442;45.640;13.812;2024-03-08T04:42:04;12.40;;;9.20;;
63312;SDS011;49442;45.640;13.812;2024-03-08T04:44:34;13.57;;;9.30;;
63312;SDS011;49442;45.640;13.812;2024-03-08T04:47:03;15.57;;;10.73;;
63312;SDS011;49442;45.640;13.812;2024-03-08T04:49:30;15.30;;;9.63;;
63312;SDS011;49442;45.640;13.812;2024-03-08T04:51:59;16.25;;;10.18;;
63312;SDS011;49442;45.640;13.812;2024-03-08T04:54:29;15.27;;;9.57;;
63312;SDS011;49442;45.640;13.812;2024-03-08T04:56:55;14.40;;;10.05;;
63312;SDS011;49442;45.640;13.812;2024-03-08T04:59:21;17.67;;;10.10;;
63312;SDS011;49442;45.640;13.812;2024-03-08T05:01:47;16.17;;;10.77;;
63312;SDS011;49442;45.640;13.812;2024-03-08T05:04:13;12.93;;;9.35;;
63312;SDS011;49442;45.640;13.812;2024-03-08T05:06:40;15.50;;;10.13;;
63312;SDS011;49442;45.640;13.812;2024-03-08T05:09:06;16.15;;;11.13;;
63312;SDS011;49442;45.640;13.812;2024-03-08T05:11:44;14.07;;;9.82;;
63312;SDS011;49442;45.640;13.812;2024-03-08T05:14:10;14.48;;;10.52;;
63312;SDS011;49442;45.640;13.812;2024-03-08T05:16:41;15.20;;;10.18;;
63312;SDS011;49442;45.640;13.812;2024-03-08T05:19:16;14.25;;;9.88;;
63312;SDS011;49442;45.640;13.812;2024-03-08T05:21:43;15.75;;;10.50;;
63312;SDS011;49442;45.640;13.812;2024-03-08T05:24:09;16.00;;;11.32;;
63312;SDS011;49442;45.640;13.812;2024-03-08T05:26:35;16.60;;;10.95;;
63312;SDS011;49442;45.640;13.812;2024-03-08T05:29:02;18.50;;;10.80;;
63312;SDS011;49442;45.640;13.812;2024-03-08T05:31:28;17.48;;;10.90;;
63312;SDS011;49442;45.640;13.812;2024-03-08T05:33:56;15.02;;;10.48;;
63312;SDS011;49442;45.640;13.812;2024-03-08T05:36:21;15.35;;;11.27;;
63312;SDS011;49442;45.640;13.812;2024-03-08T05:38:47;14.88;;;10.25;;
63312;SDS011;49442;45.640;13.812;2024-03-08T05:41:15;14.15;;;10.60;;
63312;SDS011;49442;45.640;13.812;2024-03-08T05:43:42;14.50;;;10.85;;
63312;SDS011;49442;45.640;13.812;2024-03-08T05:46:08;19.20;;;12.05;;
63312;SDS011;49442;45.640;13.812;2024-03-08T05:48:36;15.13;;;11.40;;
63312;SDS011;49442;45.640;13.812;2024-03-08T05:51:02;15.30;;;10.82;;
63312;SDS011;49442;45.640;13.812;2024-03-08T05:53:28;15.52;;;10.25;;
63312;SDS011;49442;45.640;13.812;2024-03-08T05:55:57;17.30;;;11.13;;
63312;SDS011;49442;45.640;13.812;2024-03-08T05:58:24;14.48;;;10.65;;
63312;SDS011;49442;45.640;13.812;2024-03-08T06:00:50;14.88;;;11.07;;
63312;SDS011;49442;45.640;13.812;2024-03-08T06:03:15;15.43;;;10.80;;
63312;SDS011;49442;45.640;13.812;2024-03-08T06:05:41;15.82;;;10.63;;
63312;SDS011;49442;45.640;13.812;2024-03-08T06:08:07;15.23;;;11.13;;
63312;SDS011;49442;45.640;13.812;2024-03-08T06:10:33;15.18;;;11.02;;
63312;SDS011;49442;45.640;13.812;2024-03-08T06:12:59;18.05;;;10.82;;
63312;SDS011;49442;45.640;13.812;2024-03-08T06:15:26;16.45;;;10.90;;
63312;SDS011;49442;45.640;13.812;2024-03-08T06:17:52;15.25;;;10.95;;
63312;SDS011;49442;45.640;13.812;2024-03-08T06:20:17;13.80;;;9.70;;
63312;SDS011;49442;45.640;13.812;2024-03-08T06:22:43;17.63;;;11.50;;
63312;SDS011;49442;45.640;13.812;2024-03-08T06:25:10;17.30;;;11.10;;
63312;SDS011;49442;45.640;13.812;2024-03-08T06:27:39;19.65;;;11.93;;
63312;SDS011;49442;45.640;13.812;2024-03-08T06:30:07;22.25;;;12.25;;
63312;SDS011;49442;45.640;13.812;2024-03-08T06:32:35;16.08;;;10.80;;
63312;SDS011;49442;45.640;13.812;2024-03-08T06:35:02;16.20;;;11.05;;
63312;SDS011;49442;45.640;13.812;2024-03-08T06:37:35;14.57;;;10.30;;
63312;SDS011;49442;45.640;13.812;2024-03-08T06:40:01;17.75;;;11.52;;
63312;SDS011;49442;45.640;13.812;2024-03-08T06:42:33;17.05;;;11.25;;
63312;SDS011;49442;45.640;13.812;2024-03-08T06:45:00;15.38;;;10.88;;
63312;SDS011;49442;45.640;13.812;2024-03-08T06:47:30;15.63;;;10.75;;
63312;SDS011;49442;45.640;13.812;2024-03-08T06:49:56;17.42;;;11.38;;
63312;SDS011;49442;45.640;13.812;2024-03-08T06:52:22;14.48;;;10.98;;
63312;SDS011;49442;45.640;13.812;2024-03-08T06:54:48;15.30;;;10.18;;
63312;SDS011;49442;45.640;13.812;2024-03-08T06:57:14;15.60;;;10.52;;
63312;SDS011;49442;45.640;13.812;2024-03-08T06:59:41;16.45;;;11.07;;
63312;SDS011;49442;45.640;13.812;2024-03-08T07:02:07;17.05;;;11.15;;
63312;SDS011;49442;45.640;13.812;2024-03-08T07:04:34;16.63;;;11.50;;
63312;SDS011;49442;45.640;13.812;2024-03-08T07:07:03;15.43;;;10.80;;
63312;SDS011;49442;45.640;13.812;2024-03-08T07:09:29;16.00;;;10.80;;
63312;SDS011;49442;45.640;13.812;2024-03-08T07:11:55;15.15;;;11.18;;
63312;SDS011;49442;45.640;13.812;2024-03-08T07:14:21;13.90;;;10.73;;
63312;SDS011;49442;45.640;13.812;2024-03-08T07:16:47;16.70;;;11.68;;
63312;SDS011;49442;45.640;13.812;2024-03-08T07:19:14;14.38;;;10.48;;
63312;SDS011;49442;45.640;13.812;2024-03-08T07:21:40;16.13;;;10.68;;
63312;SDS011;49442;45.640;13.812;2024-03-08T07:24:07;19.95;;;10.20;;
63312;SDS011;49442;45.640;13.812;2024-03-08T07:26:45;13.00;;;9.80;;
63312;SDS011;49442;45.640;13.812;2024-03-08T07:29:14;15.50;;;10.57;;
63312;SDS011;49442;45.640;13.812;2024-03-08T07:31:40;16.67;;;11.80;;
63312;SDS011;49442;45.640;13.812;2024-03-08T07:34:06;17.25;;;10.90;;
63312;SDS011;49442;45.640;13.812;2024-03-08T07:36:33;15.40;;;11.07;;
63312;SDS011;49442;45.640;13.812;2024-03-08T07:39:00;14.45;;;10.02;;
63312;SDS011;49442;45.640;13.812;2024-03-08T07:41:25;16.95;;;11.07;;
63312;SDS011;49442;45.640;13.812;2024-03-08T07:43:51;15.38;;;10.18;;
63312;SDS011;49442;45.640;13.812;2024-03-08T07:46:17;15.77;;;10.45;;
63312;SDS011;49442;45.640;13.812;2024-03-08T07:48:43;14.02;;;9.52;;
63312;SDS011;49442;45.640;13.812;2024-03-08T07:51:10;17.55;;;11.80;;
63312;SDS011;49442;45.640;13.812;2024-03-08T07:53:37;16.10;;;11.20;;
63312;SDS011;49442;45.640;13.812;2024-03-08T07:56:03;15.15;;;10.00;;
63312;SDS011;49442;45.640;13.812;2024-03-08T07:58:32;16.77;;;9.82;;
63312;SDS011;49442;45.640;13.812;2024-03-08T08:00:58;13.85;;;10.40;;
63312;SDS011;49442;45.640;13.812;2024-03-08T08:03:23;16.30;;;10.80;;
63312;SDS011;49442;45.640;13.812;2024-03-08T08:05:50;14.02;;;9.52;;
63312;SDS011;49442;45.640;13.812;2024-03-08T08:08:16;12.57;;;9.55;;
63312;SDS011;49442;45.640;13.812;2024-03-08T08:10:41;15.02;;;10.40;;
63312;SDS011;49442;45.640;13.812;2024-03-08T08:13:07;15.50;;;10.70;;
63312;SDS011;49442;45.640;13.812;2024-03-08T08:15:33;14.82;;;10.20;;
63312;SDS011;49442;45.640;13.812;2024-03-08T08:18:01;13.95;;;10.30;;
63312;SDS011;49442;45.640;13.812;2024-03-08T08:20:30;14.32;;;10.35;;
63312;SDS011;49442;45.640;13.812;2024-03-08T08:22:56;15.50;;;11.00;;
63312;SDS011;49442;45.640;13.812;2024-03-08T08:25:24;14.27;;;10.05;;
63312;SDS011;49442;45.640;13.812;2024-03-08T08:27:49;15.52;;;9.98;;
63312;SDS011;49442;45.640;13.812;2024-03-08T08:30:15;13.05;;;9.25;;
63312;SDS011;49442;45.640;13.812;2024-03-08T08:32:41;16.20;;;10.23;;
63312;SDS011;49442;45.640;13.812;2024-03-08T08:35:12;12.52;;;10.18;;
63312;SDS011;49442;45.640;13.812;2024-03-08T08:37:41;13.95;;;10.10;;
63312;SDS011;49442;45.640;13.812;2024-03-08T08:40:07;14.65;;;9.55;;
63312;SDS011;49442;45.640;13.812;2024-03-08T08:42:39;14.52;;;10.57;;
63312;SDS011;49442;45.640;13.812;2024-03-08T08:45:06;13.48;;;9.45;;
63312;SDS011;49442;45.640;13.812;2024-03-08T08:47:35;14.32;;;10.32;;
63312;SDS011;49442;45.640;13.812;2024-03-08T08:50:01;13.52;;;10.20;;
63312;SDS011;49442;45.640;13.812;2024-03-08T08:52:29;16.38;;;10.13;;
63312;SDS011;49442;45.640;13.812;2024-03-08T08:54:55;16.45;;;10.30;;
63312;SDS011;49442;45.640;13.812;2024-03-08T08:57:21;15.63;;;10.18;;
63312;SDS011;49442;45.640;13.812;2024-03-08T08:59:47;14.13;;;9.93;;
63312;SDS011;49442;45.640;13.812;2024-03-08T09:02:13;13.88;;;9.63;;
63312;SDS011;49442;45.640;13.812;2024-03-08T09:04:39;14.65;;;9.60;;
63312;SDS011;49442;45.640;13.812;2024-03-08T09:07:05;12.63;;;9.45;;
63312;SDS011;49442;45.640;13.812;2024-03-08T09:09:33;15.75;;;10.70;;
63312;SDS011;49442;45.640;13.812;2024-03-08T09:11:59;11.25;;;9.10;;
63312;SDS011;49442;45.640;13.812;2024-03-08T09:14:26;12.80;;;9.32;;
63312;SDS011;49442;45.640;13.812;2024-03-08T09:16:51;14.85;;;10.70;;
63312;SDS011;49442;45.640;13.812;2024-03-08T09:19:17;10.85;;;8.98;;
63312;SDS011;49442;45.640;13.812;2024-03-08T09:21:44;13.40;;;9.65;;
63312;SDS011;49442;45.640;13.812;2024-03-08T09:24:10;20.67;;;10.50;;
63312;SDS011;49442;45.640;13.812;2024-03-08T09:26:36;12.80;;;9.20;;
63312;SDS011;49442;45.640;13.812;2024-03-08T09:29:02;12.82;;;9.32;;
63312;SDS011;49442;45.640;13.812;2024-03-08T09:31:28;13.85;;;9.90;;
63312;SDS011;49442;45.640;13.812;2024-03-08T09:33:54;14.80;;;9.93;;
63312;SDS011;49442;45.640;13.812;2024-03-08T09:36:19;11.95;;;8.80;;
63312;SDS011;49442;45.640;13.812;2024-03-08T09:38:45;12.50;;;9.57;;
63312;SDS011;49442;45.640;13.812;2024-03-08T09:41:12;11.70;;;8.95;;
63312;SDS011;49442;45.640;13.812;2024-03-08T09:43:38;13.10;;;9.63;;
63312;SDS011;49442;45.640;13.812;2024-03-08T09:46:04;13.20;;;9.52;;
63312;SDS011;49442;45.640;13.812;2024-03-08T09:48:31;11.82;;;8.73;;
63312;SDS011;49442;45.640;13.812;2024-03-08T09:50:57;12.75;;;9.10;;
63312;SDS011;49442;45.640;13.812;2024-03-08T09:53:23;14.65;;;9.43;;
63312;SDS011;49442;45.640;13.812;2024-03-08T09:55:49;15.75;;;9.70;;
63312;SDS011;49442;45.640;13.812;2024-03-08T09:58:15;13.77;;;10.27;;
63312;SDS011;49442;45.640;13.812;2024-03-08T10:00:52;12.18;;;8.75;;
63312;SDS011;49442;45.640;13.812;2024-03-08T10:03:19;13.07;;;9.13;;
63312;SDS011;49442;45.640;13.812;2024-03-08T10:05:44;12.23;;;8.43;;
63312;SDS011;49442;45.640;13.812;2024-03-08T10:08:10;14.20;;;8.75;;
63312;SDS011;49442;45.640;13.812;2024-03-08T10:10:39;14.98;;;8.95;;
63312;SDS011;49442;45.640;13.812;2024-03-08T10:13:09;12.95;;;8.98;;
63312;SDS011;49442;45.640;13.812;2024-03-08T10:15:36;14.32;;;8.25;;
63312;SDS011;49442;45.640;13.812;2024-03-08T10:18:01;14.50;;;8.80;;
63312;SDS011;49442;45.640;13.812;2024-03-08T10:20:28;11.82;;;8.45;;
63312;SDS011;49442;45.640;13.812;2024-03-08T10:22:58;12.33;;;8.67;;
63312;SDS011;49442;45.640;13.812;2024-03-08T10:25:32;12.10;;;8.27;;
63312;SDS011;49442;45.640;13.812;2024-03-08T10:27:58;11.50;;;8.00;;
63312;SDS011;49442;45.640;13.812;2024-03-08T10:30:23;11.38;;;8.23;;
63312;SDS011;49442;45.640;13.812;2024-03-08T10:32:49;12.90;;;8.38;;
63312;SDS011;49442;45.640;13.812;2024-03-08T10:35:16;10.27;;;8.40;;
63312;SDS011;49442;45.640;13.812;2024-03-08T10:37:46;11.85;;;8.23;;
63312;SDS011;49442;45.640;13.812;2024-03-08T10:40:17;10.93;;;9.18;;
63312;SDS011;49442;45.640;13.812;2024-03-08T10:42:53;10.93;;;7.50;;
63312;SDS011;49442;45.640;13.812;2024-03-08T10:45:35;9.70;;;7.63;;
63312;SDS011;49442;45.640;13.812;2024-03-08T10:50:40;10.82;;;7.65;;
63312;SDS011;49442;45.640;13.812;2024-03-08T10:53:07;10.52;;;8.20;;
63312;SDS011;49442;45.640;13.812;2024-03-08T10:55:36;12.02;;;8.07;;
63312;SDS011;49442;45.640;13.812;2024-03-08T10:58:05;12.25;;;8.32;;
63312;SDS011;49442;45.640;13.812;2024-03-08T11:00:33;9.88;;;7.88;;
63312;SDS011;49442;45.640;13.812;2024-03-08T11:02:59;10.00;;;8.18;;
63312;SDS011;49442;45.640;13.812;2024-03-08T11:05:32;10.82;;;8.65;;
63312;SDS011;49442;45.640;13.812;2024-03-08T11:10:46;11.40;;;8.43;;
63312;SDS011;49442;45.640;13.812;2024-03-08T11:13:32;10.38;;;7.88;;
63312;SDS011;49442;45.640;13.812;2024-03-08T11:16:12;13.57;;;8.55;;
63312;SDS011;49442;45.640;13.812;2024-03-08T11:21:35;11.73;;;9.05;;
63312;SDS011;49442;45.640;13.812;2024-03-08T11:24:08;15.82;;;9.98;;
63312;SDS011;49442;45.640;13.812;2024-03-08T11:26:38;11.73;;;9.98;;
63312;SDS011;49442;45.640;13.812;2024-03-08T11:31:53;12.57;;;8.27;;
63312;SDS011;49442;45.640;13.812;2024-03-08T11:34:39;11.02;;;8.85;;
63312;SDS011;49442;45.640;13.812;2024-03-08T11:37:18;13.57;;;9.48;;
63312;SDS011;49442;45.640;13.812;2024-03-08T11:39:49;11.32;;;8.68;;
63312;SDS011;49442;45.640;13.812;2024-03-08T11:42:24;14.02;;;10.38;;
63312;SDS011;49442;45.640;13.812;2024-03-08T11:44:51;13.82;;;9.40;;
63312;SDS011;49442;45.640;13.812;2024-03-08T11:47:17;13.90;;;9.93;;
63312;SDS011;49442;45.640;13.812;2024-03-08T11:49:43;10.68;;;9.23;;
63312;SDS011;49442;45.640;13.812;2024-03-08T11:52:11;12.05;;;10.07;;
63312;SDS011;49442;45.640;13.812;2024-03-08T11:54:47;10.88;;;8.48;;
63312;SDS011;49442;45.640;13.812;2024-03-08T11:57:19;14.27;;;9.27;;
63312;SDS011;49442;45.640;13.812;2024-03-08T11:59:53;10.85;;;9.18;;
63312;SDS011;49442;45.640;13.812;2024-03-08T12:02:21;13.60;;;9.65;;
63312;SDS011;49442;45.640;13.812;2024-03-08T12:04:55;12.77;;;9.60;;
63312;SDS011;49442;45.640;13.812;2024-03-08T12:07:25;11.15;;;9.50;;
63312;SDS011;49442;45.640;13.812;2024-03-08T12:12:46;13.38;;;9.05;;
63312;SDS011;49442;45.640;13.812;2024-03-08T12:15:16;12.75;;;8.48;;
63312;SDS011;49442;45.640;13.812;2024-03-08T12:17:48;12.15;;;8.75;;
63312;SDS011;49442;45.640;13.812;2024-03-08T12:20:18;10.57;;;9.48;;
63312;SDS011;49442;45.640;13.812;2024-03-08T12:25:21;11.07;;;8.60;;
63312;SDS011;49442;45.640;13.812;2024-03-08T12:27:47;11.52;;;8.00;;
63312;SDS011;49442;45.640;13.812;2024-03-08T12:30:20;10.65;;;8.85;;
63312;SDS011;49442;45.640;13.812;2024-03-08T12:32:48;11.50;;;8.27;;
63312;SDS011;49442;45.640;13.812;2024-03-08T12:35:18;11.07;;;8.55;;
63312;SDS011;49442;45.640;13.812;2024-03-08T12:37:47;11.18;;;8.60;;
63312;SDS011;49442;45.640;13.812;2024-03-08T12:40:18;11.65;;;9.20;;
63312;SDS011;49442;45.640;13.812;2024-03-08T12:42:45;11.02;;;8.48;;
63312;SDS011;49442;45.640;13.812;2024-03-08T12:45:14;13.60;;;8.32;;
63312;SDS011;49442;45.640;13.812;2024-03-08T12:47:39;9.32;;;7.40;;
63312;SDS011;49442;45.640;13.812;2024-03-08T12:50:07;13.05;;;9.40;;
63312;SDS011;49442;45.640;13.812;2024-03-08T12:52:34;12.85;;;8.82;;
63312;SDS011;49442;45.640;13.812;2024-03-08T12:55:00;13.02;;;9.30;;
63312;SDS011;49442;45.640;13.812;2024-03-08T12:57:28;11.38;;;8.40;;
63312;SDS011;49442;45.640;13.812;2024-03-08T12:59:54;15.52;;;9.02;;
63312;SDS011;49442;45.640;13.812;2024-03-08T13:02:20;14.07;;;9.18;;
63312;SDS011;49442;45.640;13.812;2024-03-08T13:04:46;10.05;;;8.10;;
63312;SDS011;49442;45.640;13.812;2024-03-08T13:07:20;10.88;;;7.85;;
63312;SDS011;49442;45.640;13.812;2024-03-08T13:09:46;12.23;;;8.18;;
63312;SDS011;49442;45.640;13.812;2024-03-08T13:12:12;12.68;;;8.70;;
63312;SDS011;49442;45.640;13.812;2024-03-08T13:14:40;10.32;;;7.63;;
63312;SDS011;49442;45.640;13.812;2024-03-08T13:17:06;10.25;;;7.55;;
63312;SDS011;49442;45.640;13.812;2024-03-08T13:19:36;9.68;;;7.80;;
63312;SDS011;49442;45.640;13.812;2024-03-08T13:22:03;11.05;;;8.32;;
63312;SDS011;49442;45.640;13.812;2024-03-08T13:24:29;9.65;;;7.50;;
63312;SDS011;49442;45.640;13.812;2024-03-08T13:26:55;9.77;;;7.70;;
63312;SDS011;49442;45.640;13.812;2024-03-08T13:29:21;8.90;;;7.68;;
63312;SDS011;49442;45.640;13.812;2024-03-08T13:31:48;7.75;;;6.60;;
63312;SDS011;49442;45.640;13.812;2024-03-08T13:34:17;10.30;;;7.03;;
63312;SDS011;49442;45.640;13.812;2024-03-08T13:36:43;11.02;;;7.70;;
63312;SDS011;49442;45.640;13.812;2024-03-08T13:39:10;9.60;;;7.70;;
63312;SDS011;49442;45.640;13.812;2024-03-08T13:41:43;11.65;;;7.75;;
63312;SDS011;49442;45.640;13.812;2024-03-08T13:44:09;10.02;;;7.00;;
63312;SDS011;49442;45.640;13.812;2024-03-08T13:46:35;9.93;;;7.30;;
63312;SDS011;49442;45.640;13.812;2024-03-08T13:49:05;10.82;;;7.63;;
63312;SDS011;49442;45.640;13.812;2024-03-08T13:51:33;10.15;;;7.15;;
63312;SDS011;49442;45.640;13.812;2024-03-08T13:53:59;9.15;;;6.80;;
63312;SDS011;49442;45.640;13.812;2024-03-08T13:56:28;10.30;;;6.85;;
63312;SDS011;49442;45.640;13.812;2024-03-08T13:58:56;11.57;;;7.22;;
63312;SDS011;49442;45.640;13.812;2024-03-08T14:01:22;8.30;;;6.45;;
63312;SDS011;49442;45.640;13.812;2024-03-08T14:03:48;10.40;;;5.97;;
63312;SDS011;49442;45.640;13.812;2024-03-08T14:06:14;9.68;;;7.00;;
63312;SDS011;49442;45.640;13.812;2024-03-08T14:08:39;9.25;;;7.10;;
63312;SDS011;49442;45.640;13.812;2024-03-08T14:11:05;12.93;;;7.55;;
63312;SDS011;49442;45.640;13.812;2024-03-08T14:13:43;9.35;;;6.63;;
63312;SDS011;49442;45.640;13.812;2024-03-08T14:16:13;9.60;;;7.00;;
63312;SDS011;49442;45.640;13.812;2024-03-08T14:18:39;12.25;;;6.65;;
63312;SDS011;49442;45.640;13.812;2024-03-08T14:21:04;7.93;;;6.10;;
63312;SDS011;49442;45.640;13.812;2024-03-08T14:23:30;9.23;;;6.70;;
63312;SDS011;49442;45.640;13.812;2024-03-08T14:25:57;9.45;;;6.75;;
63312;SDS011;49442;45.640;13.812;2024-03-08T14:28:24;8.40;;;6.05;;
63312;SDS011;49442;45.640;13.812;2024-03-08T14:30:52;7.70;;;6.03;;
63312;SDS011;49442;45.640;13.812;2024-03-08T14:33:18;8.30;;;5.63;;
63312;SDS011;49442;45.640;13.812;2024-03-08T14:35:44;7.45;;;5.50;;
63312;SDS011;49442;45.640;13.812;2024-03-08T14:38:12;9.60;;;6.10;;